Weather at Tottenham/Ronan Aerodrome

Public forecast

Using degrees Celsius for public forecast. Weather courtesy of forecast.io.

Closest aviation weather report (METAR) to Tottenham/Ronan Aerodrome

Closest report is CFB Borden, 14.1 nm (26.1 km) NNW. Retrieved 2020/11/26 02:00 UTC (26 minutes ago):

CYBN 260200Z AUTO 00000KT 1/8SM -RA VV001 02/02 A2989 RMK PCPN 20MM PAST HR SLP132

Closest aviation forecast (TAF) to Tottenham/Ronan Aerodrome

Closest forecast is CFB Borden, 14.1 nm (26.1 km) NNW. Retrieved 2020-11-26 00:33 UTC (2 hours ago):

TAF TAF CYBN 252330Z 2600/2612 11005KT 3/4SM -RA BR OVC002 TEMPO 2600/2612 3SM -RA BR OVC008 RMK FCST BASED ON AUTO OBS NXT FCST BY 260600Z